Time;durP1;ratioP1;P1;durP2;ratioP2;P2;SDS_P1;SDS_P2;PMS_P1;PMS_P2;Temp;Humidity;BMP_temperature;BMP_pressure;BME280_temperature;BME280_humidity;BME280_pressure;Samples;Min_cycle;Max_cycle;Signal;HPM_P1;HPM_P2
2023/03/19 00:00:08;;;;;;;10.85;7.63;;;;;;;;;;4962587;28;20062;-65
2023/03/19 00:02:35;;;;;;;10.48;7.20;;;;;;;;;;4943173;28;20051;-65
2023/03/19 00:05:01;;;;;;;9.45;6.30;;;;;;;;;;4961572;28;20054;-64
2023/03/19 00:07:28;;;;;;;11.27;6.80;;;;;;;;;;4962646;28;20035;-64
2023/03/19 00:09:54;;;;;;;13.20;7.13;;;;;;;;;;4959379;28;20088;-65
2023/03/19 00:12:20;;;;;;;12.95;6.88;;;;;;;;;;4961695;28;20066;-65
2023/03/19 00:14:46;;;;;;;9.63;5.82;;;;;;;;;;4961486;28;20081;-65
2023/03/19 00:17:12;;;;;;;7.95;5.55;;;;;;;;;;4959970;28;20471;-65
2023/03/19 00:19:38;;;;;;;7.50;4.90;;;;;;;;;;4943860;28;20473;-65
2023/03/19 00:22:05;;;;;;;6.80;4.88;;;;;;;;;;4959882;28;20414;-65
2023/03/19 00:24:31;;;;;;;8.38;5.55;;;;;;;;;;4960416;28;20470;-64
2023/03/19 00:26:57;;;;;;;7.80;5.25;;;;;;;;;;4960347;28;20094;-65
2023/03/19 00:29:24;;;;;;;8.48;6.10;;;;;;;;;;4960145;28;20067;-64
2023/03/19 00:31:50;;;;;;;11.98;5.88;;;;;;;;;;4956190;28;20451;-65
2023/03/19 00:34:18;;;;;;;10.55;6.30;;;;;;;;;;4961060;28;20463;-65
2023/03/19 00:36:44;;;;;;;11.18;6.35;;;;;;;;;;4959448;28;20182;-65
2023/03/19 00:39:11;;;;;;;8.20;6.28;;;;;;;;;;4970053;28;20080;-64
2023/03/19 00:41:37;;;;;;;10.25;7.00;;;;;;;;;;4958207;28;20087;-65
2023/03/19 00:44:05;;;;;;;13.55;7.28;;;;;;;;;;4957219;28;20106;-65
2023/03/19 00:46:31;;;;;;;9.75;7.22;;;;;;;;;;4957272;28;20122;-65
2023/03/19 00:48:57;;;;;;;12.18;6.80;;;;;;;;;;4959004;28;20495;-65
2023/03/19 00:51:23;;;;;;;10.80;7.10;;;;;;;;;;4959561;28;20039;-64
2023/03/19 00:53:50;;;;;;;13.30;6.85;;;;;;;;;;4958478;28;20051;-65
2023/03/19 00:56:17;;;;;;;13.23;6.70;;;;;;;;;;4955650;28;20047;-64
2023/03/19 00:58:43;;;;;;;10.23;6.47;;;;;;;;;;4958243;28;20062;-65
2023/03/19 01:01:11;;;;;;;11.40;6.80;;;;;;;;;;4960797;28;20055;-65
2023/03/19 01:03:37;;;;;;;9.98;7.20;;;;;;;;;;4961380;28;20058;-65
2023/03/19 01:06:04;;;;;;;11.68;7.05;;;;;;;;;;4961497;28;20035;-64
2023/03/19 01:08:30;;;;;;;10.40;7.32;;;;;;;;;;4963597;28;20106;-64
2023/03/19 01:10:56;;;;;;;12.63;7.65;;;;;;;;;;4962557;28;20051;-64
2023/03/19 01:13:22;;;;;;;11.98;7.68;;;;;;;;;;4957551;28;20051;-64
2023/03/19 01:15:51;;;;;;;10.95;7.45;;;;;;;;;;4961269;28;20499;-64
2023/03/19 01:18:17;;;;;;;11.35;7.50;;;;;;;;;;4960724;28;20090;-64
2023/03/19 01:20:43;;;;;;;12.27;8.00;;;;;;;;;;4960470;28;20113;-65
2023/03/19 01:23:09;;;;;;;10.32;8.15;;;;;;;;;;4962541;28;20069;-64
2023/03/19 01:25:36;;;;;;;9.93;6.85;;;;;;;;;;4957077;28;20403;-64
2023/03/19 01:28:02;;;;;;;10.25;6.57;;;;;;;;;;4959100;28;20050;-64
2023/03/19 01:30:28;;;;;;;7.30;5.40;;;;;;;;;;4958320;28;20054;-64
2023/03/19 01:32:54;;;;;;;9.60;6.82;;;;;;;;;;4963833;28;20047;-64
2023/03/19 01:35:21;;;;;;;9.38;5.80;;;;;;;;;;4969550;28;20042;-64
2023/03/19 01:37:47;;;;;;;13.60;7.00;;;;;;;;;;4968446;28;20091;-64
2023/03/19 01:40:13;;;;;;;9.25;6.22;;;;;;;;;;4963791;28;20045;-65
2023/03/19 01:42:51;;;;;;;10.27;6.15;;;;;;;;;;4959610;28;20049;-64
2023/03/19 01:45:29;;;;;;;9.65;6.28;;;;;;;;;;4961249;28;20054;-64
2023/03/19 01:47:56;;;;;;;15.25;6.88;;;;;;;;;;4956665;28;20484;-64
2023/03/19 01:50:27;;;;;;;9.32;6.47;;;;;;;;;;4941246;28;20058;-64
2023/03/19 01:52:53;;;;;;;12.35;6.68;;;;;;;;;;4962625;28;20054;-64
2023/03/19 01:55:19;;;;;;;11.60;7.15;;;;;;;;;;4957935;28;20136;-64
2023/03/19 01:57:46;;;;;;;12.18;6.50;;;;;;;;;;4959941;28;20450;-64
2023/03/19 02:00:13;;;;;;;13.18;7.10;;;;;;;;;;4960698;28;20049;-64
2023/03/19 02:02:40;;;;;;;11.18;7.72;;;;;;;;;;4943292;28;20237;-64
2023/03/19 02:05:09;;;;;;;10.65;7.38;;;;;;;;;;4963302;28;20069;-64
2023/03/19 02:07:37;;;;;;;11.35;7.75;;;;;;;;;;4963508;28;20121;-64
2023/03/19 02:10:06;;;;;;;8.73;6.85;;;;;;;;;;4964523;28;20042;-64
2023/03/19 02:12:32;;;;;;;10.68;6.80;;;;;;;;;;4945583;28;20094;-64
2023/03/19 02:14:58;;;;;;;12.25;7.28;;;;;;;;;;4946709;28;20039;-64
2023/03/19 02:17:25;;;;;;;11.65;7.25;;;;;;;;;;4965289;28;20232;-64
2023/03/19 02:19:59;;;;;;;11.82;8.07;;;;;;;;;;4964022;28;20069;-64
2023/03/19 02:22:27;;;;;;;13.65;8.02;;;;;;;;;;4963825;28;20053;-63
2023/03/19 02:24:56;;;;;;;12.63;7.55;;;;;;;;;;4961306;28;20030;-64
2023/03/19 02:27:22;;;;;;;12.48;7.95;;;;;;;;;;4955603;28;20089;-64
2023/03/19 02:29:48;;;;;;;12.75;8.15;;;;;;;;;;4957419;28;20767;-64
2023/03/19 02:32:15;;;;;;;12.55;8.45;;;;;;;;;;4961507;28;20085;-63
2023/03/19 02:34:42;;;;;;;14.65;9.27;;;;;;;;;;4944394;28;20506;-63
2023/03/19 02:37:09;;;;;;;16.65;10.70;;;;;;;;;;4960381;28;20034;-64
2023/03/19 02:39:39;;;;;;;17.65;9.90;;;;;;;;;;4961720;28;20380;-64
2023/03/19 02:42:06;;;;;;;19.02;11.23;;;;;;;;;;4964955;28;20046;-64
2023/03/19 02:44:32;;;;;;;21.73;12.20;;;;;;;;;;4962368;28;20043;-64
2023/03/19 02:46:58;;;;;;;25.67;13.60;;;;;;;;;;4964741;28;20066;-64
2023/03/19 02:49:24;;;;;;;29.35;15.82;;;;;;;;;;4960469;28;20049;-64
2023/03/19 02:51:50;;;;;;;28.30;15.90;;;;;;;;;;4963357;28;20110;-64
2023/03/19 02:54:17;;;;;;;34.75;18.02;;;;;;;;;;4961965;28;20055;-64
2023/03/19 02:56:43;;;;;;;36.35;17.77;;;;;;;;;;4963391;28;20139;-64
2023/03/19 02:59:09;;;;;;;36.13;19.83;;;;;;;;;;4960120;28;20089;-64
2023/03/19 03:01:35;;;;;;;39.03;20.73;;;;;;;;;;4961324;28;20136;-63
2023/03/19 03:04:01;;;;;;;41.45;22.23;;;;;;;;;;4959885;28;20046;-64
2023/03/19 03:06:27;;;;;;;48.65;23.05;;;;;;;;;;4957772;28;20047;-63
2023/03/19 03:08:54;;;;;;;46.67;24.13;;;;;;;;;;4945177;28;20051;-64
2023/03/19 03:11:20;;;;;;;51.25;25.52;;;;;;;;;;4943901;28;20063;-64
2023/03/19 03:13:46;;;;;;;48.25;23.98;;;;;;;;;;4954040;28;20064;-63
2023/03/19 03:16:12;;;;;;;54.70;27.05;;;;;;;;;;4959827;28;20177;-63
2023/03/19 03:18:38;;;;;;;55.20;26.75;;;;;;;;;;4959385;28;20048;-63
2023/03/19 03:21:04;;;;;;;55.20;25.58;;;;;;;;;;4960663;28;20050;-63
2023/03/19 03:23:30;;;;;;;51.78;26.35;;;;;;;;;;4962133;28;20138;-63
2023/03/19 03:25:57;;;;;;;54.10;25.88;;;;;;;;;;4946890;28;20102;-64
2023/03/19 03:28:23;;;;;;;51.00;25.45;;;;;;;;;;4940112;28;20061;-64
2023/03/19 03:30:49;;;;;;;50.08;25.42;;;;;;;;;;4960404;28;21904;-64
2023/03/19 03:33:16;;;;;;;51.22;26.13;;;;;;;;;;4941898;28;20057;-64
2023/03/19 03:35:42;;;;;;;50.25;24.40;;;;;;;;;;4957698;28;20405;-64
2023/03/19 03:38:08;;;;;;;45.70;24.90;;;;;;;;;;4962803;28;20415;-64
2023/03/19 03:40:35;;;;;;;46.92;23.33;;;;;;;;;;4957022;28;20957;-64
2023/03/19 03:43:01;;;;;;;50.20;23.60;;;;;;;;;;4959959;28;20054;-64
2023/03/19 03:45:28;;;;;;;45.65;23.90;;;;;;;;;;4962702;28;20126;-64
2023/03/19 03:47:54;;;;;;;45.92;23.52;;;;;;;;;;4960395;28;20541;-64
2023/03/19 03:50:20;;;;;;;53.05;23.67;;;;;;;;;;4962467;28;20066;-64
2023/03/19 03:52:46;;;;;;;40.13;20.73;;;;;;;;;;4944415;28;20038;-64
2023/03/19 03:55:12;;;;;;;39.20;20.15;;;;;;;;;;4941086;28;20176;-64
2023/03/19 03:57:39;;;;;;;37.83;19.63;;;;;;;;;;4961085;28;20039;-64
2023/03/19 04:00:05;;;;;;;33.60;19.95;;;;;;;;;;4960133;28;20055;-64
2023/03/19 04:02:32;;;;;;;31.77;19.17;;;;;;;;;;4960607;28;20046;-64
2023/03/19 04:04:58;;;;;;;35.00;20.00;;;;;;;;;;4960942;28;20043;-64
2023/03/19 04:07:24;;;;;;;32.65;19.67;;;;;;;;;;4960918;28;20050;-64
2023/03/19 04:09:50;;;;;;;34.88;18.80;;;;;;;;;;4961469;28;22013;-64
2023/03/19 04:12:16;;;;;;;34.45;18.33;;;;;;;;;;4960543;28;20057;-64
2023/03/19 04:14:43;;;;;;;39.10;20.13;;;;;;;;;;4942515;28;20054;-64
2023/03/19 04:17:09;;;;;;;31.95;19.38;;;;;;;;;;4959684;28;20119;-64
2023/03/19 04:19:36;;;;;;;29.23;18.30;;;;;;;;;;4940446;28;20056;-64
2023/03/19 04:22:02;;;;;;;30.88;19.05;;;;;;;;;;4958850;28;20039;-64
2023/03/19 04:24:28;;;;;;;35.08;19.38;;;;;;;;;;4958984;28;20125;-64
2023/03/19 04:26:55;;;;;;;34.25;19.38;;;;;;;;;;4959560;28;20039;-64
2023/03/19 04:29:22;;;;;;;34.50;19.23;;;;;;;;;;4961612;28;20046;-64
2023/03/19 04:31:49;;;;;;;34.15;19.55;;;;;;;;;;4959807;28;20057;-64
2023/03/19 04:34:16;;;;;;;31.25;18.35;;;;;;;;;;4960892;28;20368;-64
2023/03/19 04:36:42;;;;;;;33.15;17.90;;;;;;;;;;4961068;28;20047;-64
2023/03/19 04:39:09;;;;;;;33.75;19.92;;;;;;;;;;4958483;28;20043;-64
2023/03/19 04:41:36;;;;;;;31.85;19.35;;;;;;;;;;4958327;28;20101;-64
2023/03/19 04:44:02;;;;;;;32.78;19.63;;;;;;;;;;4956271;28;20054;-64
2023/03/19 04:46:28;;;;;;;30.60;17.35;;;;;;;;;;4960103;28;20035;-64
2023/03/19 04:48:54;;;;;;;26.63;16.02;;;;;;;;;;4958258;28;20371;-64
2023/03/19 04:51:21;;;;;;;28.35;15.77;;;;;;;;;;4960643;28;20442;-64
2023/03/19 04:53:48;;;;;;;28.48;16.17;;;;;;;;;;4958954;28;20054;-64
2023/03/19 04:56:15;;;;;;;33.60;17.60;;;;;;;;;;4945334;28;20181;-64
2023/03/19 04:58:42;;;;;;;31.13;18.13;;;;;;;;;;4960176;28;20069;-64
2023/03/19 05:01:08;;;;;;;32.15;17.83;;;;;;;;;;4959068;28;20185;-64
2023/03/19 05:03:35;;;;;;;31.25;19.75;;;;;;;;;;4944223;28;20065;-64
2023/03/19 05:06:01;;;;;;;39.80;21.77;;;;;;;;;;4960230;28;20127;-64
2023/03/19 05:08:27;;;;;;;43.30;24.10;;;;;;;;;;4945753;28;20402;-64
2023/03/19 05:10:53;;;;;;;48.45;26.80;;;;;;;;;;4964087;28;20123;-64
2023/03/19 05:13:19;;;;;;;52.83;26.75;;;;;;;;;;4944247;28;20058;-64
2023/03/19 05:15:46;;;;;;;58.80;27.85;;;;;;;;;;4961682;28;20900;-63
2023/03/19 05:18:12;;;;;;;45.22;24.15;;;;;;;;;;4959715;28;20399;-64
2023/03/19 05:20:39;;;;;;;46.28;25.35;;;;;;;;;;4959534;28;20045;-64
2023/03/19 05:23:05;;;;;;;51.05;25.95;;;;;;;;;;4959005;28;20042;-63
2023/03/19 05:25:31;;;;;;;47.75;25.42;;;;;;;;;;4958059;28;20043;-64
2023/03/19 05:27:57;;;;;;;52.55;27.10;;;;;;;;;;4956042;28;20406;-63
2023/03/19 05:30:24;;;;;;;46.88;25.05;;;;;;;;;;4956252;28;20645;-64
2023/03/19 05:32:50;;;;;;;54.65;26.80;;;;;;;;;;4959824;28;20061;-64
2023/03/19 05:35:17;;;;;;;52.83;28.58;;;;;;;;;;4958075;28;20058;-63
2023/03/19 05:37:43;;;;;;;53.08;27.67;;;;;;;;;;4942213;28;20057;-63
2023/03/19 05:40:09;;;;;;;63.45;30.27;;;;;;;;;;4941117;28;20181;-64
2023/03/19 05:42:36;;;;;;;54.45;27.73;;;;;;;;;;4943233;28;20047;-63
2023/03/19 05:45:03;;;;;;;59.60;28.80;;;;;;;;;;4945038;28;20363;-64
2023/03/19 05:47:29;;;;;;;53.20;28.98;;;;;;;;;;4964961;28;20039;-64
2023/03/19 05:49:55;;;;;;;52.17;27.45;;;;;;;;;;4962789;28;20106;-64
2023/03/19 05:52:21;;;;;;;54.88;28.23;;;;;;;;;;4965165;28;20058;-64
2023/03/19 05:54:48;;;;;;;48.83;26.85;;;;;;;;;;4944681;28;20085;-64
2023/03/19 05:57:15;;;;;;;46.70;25.38;;;;;;;;;;4963228;28;20040;-64
2023/03/19 05:59:41;;;;;;;42.78;24.10;;;;;;;;;;4963443;28;20137;-64
2023/03/19 06:02:07;;;;;;;49.15;25.30;;;;;;;;;;4960336;28;20043;-64
2023/03/19 06:04:33;;;;;;;47.13;24.88;;;;;;;;;;4944221;28;20467;-63
2023/03/19 06:07:00;;;;;;;45.72;23.90;;;;;;;;;;4961904;28;20043;-64
2023/03/19 06:09:26;;;;;;;52.10;26.63;;;;;;;;;;4963066;28;20047;-64
2023/03/19 06:11:52;;;;;;;45.70;24.75;;;;;;;;;;4961513;28;20043;-64
2023/03/19 06:14:18;;;;;;;46.10;24.67;;;;;;;;;;4962270;28;20126;-64
2023/03/19 06:16:44;;;;;;;44.53;23.67;;;;;;;;;;4943691;28;20419;-64
2023/03/19 06:19:11;;;;;;;41.40;23.35;;;;;;;;;;4946731;28;20125;-63
2023/03/19 06:21:37;;;;;;;43.83;23.10;;;;;;;;;;4962659;28;20482;-64
2023/03/19 06:24:03;;;;;;;45.92;24.95;;;;;;;;;;4962883;28;20107;-65
2023/03/19 06:26:30;;;;;;;46.55;24.30;;;;;;;;;;4942951;28;20066;-65
2023/03/19 06:28:56;;;;;;;60.83;24.40;;;;;;;;;;4945746;28;20449;-65
2023/03/19 06:31:22;;;;;;;50.72;26.83;;;;;;;;;;4962547;28;20174;-64
2023/03/19 06:33:49;;;;;;;52.47;26.50;;;;;;;;;;4962715;28;20042;-64
2023/03/19 06:36:15;;;;;;;59.40;28.45;;;;;;;;;;4963033;28;20047;-64
2023/03/19 06:38:41;;;;;;;59.72;28.73;;;;;;;;;;4962976;28;20051;-64
2023/03/19 06:41:07;;;;;;;70.30;31.15;;;;;;;;;;4965072;28;20177;-64
2023/03/19 06:43:36;;;;;;;72.13;32.08;;;;;;;;;;4968151;28;20046;-65
2023/03/19 06:46:04;;;;;;;72.97;33.03;;;;;;;;;;4967650;28;20047;-65
2023/03/19 06:48:30;;;;;;;82.80;34.13;;;;;;;;;;4949693;28;20058;-64
2023/03/19 06:50:56;;;;;;;82.45;35.58;;;;;;;;;;4964505;28;20058;-64
2023/03/19 06:53:22;;;;;;;89.32;37.42;;;;;;;;;;4959374;28;20081;-64
2023/03/19 06:55:49;;;;;;;88.70;36.60;;;;;;;;;;4962438;28;20058;-65
2023/03/19 06:58:15;;;;;;;97.18;40.38;;;;;;;;;;4966022;28;20138;-65
2023/03/19 07:00:41;;;;;;;100.90;41.10;;;;;;;;;;4966753;28;20057;-65
2023/03/19 07:03:08;;;;;;;105.47;41.58;;;;;;;;;;4964780;28;20043;-64
2023/03/19 07:05:34;;;;;;;102.82;40.63;;;;;;;;;;4965023;28;20035;-65
2023/03/19 07:08:01;;;;;;;107.03;41.60;;;;;;;;;;4966045;28;20051;-65
2023/03/19 07:10:27;;;;;;;109.75;42.13;;;;;;;;;;4953605;28;20104;-64
2023/03/19 07:12:53;;;;;;;95.97;39.53;;;;;;;;;;4952493;28;20050;-64
2023/03/19 07:15:20;;;;;;;98.00;40.70;;;;;;;;;;4969438;28;20047;-64
2023/03/19 07:17:46;;;;;;;90.55;39.72;;;;;;;;;;4963089;28;20047;-64
2023/03/19 07:20:13;;;;;;;88.32;37.40;;;;;;;;;;4966713;28;20081;-64
2023/03/19 07:22:39;;;;;;;84.63;38.58;;;;;;;;;;4969831;28;20042;-64
2023/03/19 07:25:06;;;;;;;83.63;35.67;;;;;;;;;;4970575;28;20125;-63
2023/03/19 07:27:32;;;;;;;84.93;36.90;;;;;;;;;;4968602;28;20479;-65
2023/03/19 07:29:59;;;;;;;82.80;37.47;;;;;;;;;;4943093;28;20499;-65
2023/03/19 07:32:25;;;;;;;76.40;36.30;;;;;;;;;;4948444;29;20475;-65
2023/03/19 07:34:51;;;;;;;86.90;37.22;;;;;;;;;;4925935;29;20055;-65
2023/03/19 07:37:17;;;;;;;98.18;39.60;;;;;;;;;;4939706;29;20066;-64
2023/03/19 07:39:43;;;;;;;97.80;42.45;;;;;;;;;;4950198;29;20051;-65
2023/03/19 07:42:10;;;;;;;101.45;44.10;;;;;;;;;;4947493;29;20046;-64
2023/03/19 07:44:36;;;;;;;103.20;41.80;;;;;;;;;;4924404;29;20078;-64
2023/03/19 07:47:02;;;;;;;104.72;40.67;;;;;;;;;;4938758;29;20043;-65
2023/03/19 07:49:28;;;;;;;97.55;41.78;;;;;;;;;;4941474;29;20086;-65
2023/03/19 07:51:55;;;;;;;102.78;43.40;;;;;;;;;;4942610;29;20047;-65
2023/03/19 07:54:22;;;;;;;98.70;39.13;;;;;;;;;;4927691;29;20059;-66
2023/03/19 07:56:48;;;;;;;98.28;41.38;;;;;;;;;;4940301;29;20490;-65
2023/03/19 07:59:15;;;;;;;101.70;43.17;;;;;;;;;;4946531;29;20062;-65
2023/03/19 08:01:41;;;;;;;114.60;46.70;;;;;;;;;;4944915;29;20051;-64
2023/03/19 08:04:07;;;;;;;115.25;43.95;;;;;;;;;;4945930;28;20617;-64
2023/03/19 08:06:33;;;;;;;98.00;42.15;;;;;;;;;;4949999;29;20398;-68
2023/03/19 08:09:00;;;;;;;102.22;42.25;;;;;;;;;;4928724;29;20039;-76
2023/03/19 08:11:28;;;;;;;101.15;41.25;;;;;;;;;;4930775;29;20491;-67
2023/03/19 08:13:54;;;;;;;95.38;42.65;;;;;;;;;;4942892;29;20054;-66
2023/03/19 08:16:21;;;;;;;109.65;46.40;;;;;;;;;;4945649;29;20046;-66
2023/03/19 08:18:47;;;;;;;100.43;45.30;;;;;;;;;;4942987;29;20043;-67
2023/03/19 08:21:13;;;;;;;100.78;42.90;;;;;;;;;;4945347;29;20051;-68
2023/03/19 08:23:39;;;;;;;98.70;41.90;;;;;;;;;;4941850;29;20040;-66
2023/03/19 08:26:05;;;;;;;101.47;42.35;;;;;;;;;;4944178;29;20522;-65
2023/03/19 08:28:32;;;;;;;96.00;41.55;;;;;;;;;;4941299;29;20133;-66
2023/03/19 08:30:58;;;;;;;91.93;41.72;;;;;;;;;;4923881;29;20504;-66
2023/03/19 08:33:24;;;;;;;102.18;44.05;;;;;;;;;;4923525;29;20055;-66
2023/03/19 08:35:50;;;;;;;105.25;44.15;;;;;;;;;;4941156;29;20486;-66
2023/03/19 08:38:17;;;;;;;128.10;43.50;;;;;;;;;;4941089;29;20056;-66
2023/03/19 08:40:43;;;;;;;118.65;42.90;;;;;;;;;;4941957;29;20151;-66
2023/03/19 08:43:09;;;;;;;147.82;45.53;;;;;;;;;;4943960;29;21454;-66
2023/03/19 08:45:35;;;;;;;141.02;44.38;;;;;;;;;;4939896;29;20047;-66
2023/03/19 08:48:01;;;;;;;144.93;44.30;;;;;;;;;;4940655;29;20055;-66
2023/03/19 08:50:28;;;;;;;141.35;40.55;;;;;;;;;;4941624;29;20054;-66
2023/03/19 08:52:55;;;;;;;178.70;43.40;;;;;;;;;;4940503;29;20125;-66
2023/03/19 08:55:21;;;;;;;203.02;42.88;;;;;;;;;;4940307;29;20151;-66
2023/03/19 08:57:47;;;;;;;132.52;37.58;;;;;;;;;;4924689;29;20510;-66
2023/03/19 09:00:14;;;;;;;122.55;34.58;;;;;;;;;;4941051;29;20056;-66
2023/03/19 09:02:40;;;;;;;124.93;31.52;;;;;;;;;;4923312;29;20105;-66
2023/03/19 09:05:06;;;;;;;72.50;24.73;;;;;;;;;;4942493;29;20372;-66
2023/03/19 09:07:32;;;;;;;69.47;22.55;;;;;;;;;;4943013;29;20040;-66
2023/03/19 09:09:58;;;;;;;64.90;21.00;;;;;;;;;;4942627;29;20054;-66
2023/03/19 09:12:25;;;;;;;49.78;20.23;;;;;;;;;;4941407;29;20041;-66
2023/03/19 09:14:51;;;;;;;51.72;19.25;;;;;;;;;;4940957;29;20106;-66
2023/03/19 09:17:17;;;;;;;54.72;19.00;;;;;;;;;;4942047;29;20051;-66
2023/03/19 09:19:43;;;;;;;56.72;19.85;;;;;;;;;;4923086;29;20063;-66
2023/03/19 09:22:09;;;;;;;53.35;19.60;;;;;;;;;;4940131;29;20035;-66
2023/03/19 09:24:36;;;;;;;59.53;22.05;;;;;;;;;;4943991;29;20127;-66
2023/03/19 09:27:02;;;;;;;72.20;23.27;;;;;;;;;;4928370;29;20051;-66
2023/03/19 09:29:28;;;;;;;68.90;22.83;;;;;;;;;;4944538;28;20051;-66
2023/03/19 09:31:54;;;;;;;57.83;22.45;;;;;;;;;;4961635;28;20046;-66
2023/03/19 09:34:20;;;;;;;51.10;19.83;;;;;;;;;;4961323;28;20085;-66
2023/03/19 09:36:46;;;;;;;56.28;20.02;;;;;;;;;;4960153;28;20043;-66
2023/03/19 09:39:13;;;;;;;48.15;18.83;;;;;;;;;;4959460;28;20050;-66
2023/03/19 09:41:47;;;;;;;47.13;18.65;;;;;;;;;;4960936;28;20051;-66
2023/03/19 09:44:37;;;;;;;50.92;18.98;;;;;;;;;;4945994;28;20054;-67
2023/03/19 09:47:07;;;;;;;49.05;19.70;;;;;;;;;;4960444;28;20034;-66
2023/03/19 09:49:37;;;;;;;47.92;18.02;;;;;;;;;;4955354;28;20114;-66
2023/03/19 09:52:09;;;;;;;55.63;18.77;;;;;;;;;;4943575;28;20500;-66
2023/03/19 09:54:43;;;;;;;47.92;18.88;;;;;;;;;;4960590;28;20043;-66
2023/03/19 09:57:10;;;;;;;56.97;20.35;;;;;;;;;;4958379;28;20043;-66
2023/03/19 09:59:36;;;;;;;58.28;21.00;;;;;;;;;;4964039;28;20050;-66
2023/03/19 10:02:23;;;;;;;66.25;22.20;;;;;;;;;;4960880;28;20498;-66
2023/03/19 10:04:57;;;;;;;64.65;24.92;;;;;;;;;;4941069;28;20529;-66
2023/03/19 10:07:23;;;;;;;;;;;;;;;;;;4942461;28;20538;-66
2023/03/19 10:09:54;;;;;;;62.30;25.58;;;;;;;;;;4960862;28;20408;-67
2023/03/19 10:12:20;;;;;;;57.45;22.50;;;;;;;;;;4959489;28;20717;-67
2023/03/19 10:14:47;;;;;;;61.85;23.42;;;;;;;;;;4942195;28;20054;-67
2023/03/19 10:17:31;;;;;;;66.70;24.80;;;;;;;;;;4942348;28;20191;-67
2023/03/19 10:20:00;;;;;;;44.78;21.48;;;;;;;;;;4944334;28;20161;-67
2023/03/19 10:22:31;;;;;;;43.10;21.33;;;;;;;;;;4956050;28;20102;-67
2023/03/19 10:24:57;;;;;;;48.65;22.60;;;;;;;;;;4942616;28;20069;-68
2023/03/19 10:27:27;;;;;;;53.78;24.60;;;;;;;;;;4946519;28;20077;-67
2023/03/19 10:29:53;;;;;;;44.05;22.98;;;;;;;;;;4962878;28;20121;-67
2023/03/19 10:32:33;;;;;;;52.53;25.35;;;;;;;;;;4945577;28;20443;-68
2023/03/19 10:35:02;;;;;;;47.30;22.67;;;;;;;;;;4962721;28;20083;-67
2023/03/19 10:37:28;;;;;;;41.88;21.58;;;;;;;;;;4944255;28;20049;-67
2023/03/19 10:39:57;;;;;;;36.85;18.00;;;;;;;;;;4964777;28;20105;-67
2023/03/19 10:42:32;;;;;;;43.75;22.17;;;;;;;;;;4965260;28;20050;-67
2023/03/19 10:45:07;;;;;;;41.10;20.33;;;;;;;;;;4949893;28;20537;-68
2023/03/19 10:47:37;;;;;;;44.30;21.80;;;;;;;;;;4962336;28;20058;-67
2023/03/19 10:50:03;;;;;;;40.65;19.05;;;;;;;;;;4942421;28;21482;-68
2023/03/19 10:52:33;;;;;;;43.17;21.83;;;;;;;;;;4945059;28;20046;-66
2023/03/19 10:55:12;;;;;;;49.63;21.70;;;;;;;;;;4946487;28;20055;-68
2023/03/19 10:57:40;;;;;;;49.53;20.88;;;;;;;;;;4943690;28;20043;-67
2023/03/19 11:00:15;;;;;;;47.88;21.45;;;;;;;;;;4960482;28;20046;-76
2023/03/19 11:02:49;;;;;;;53.65;24.55;;;;;;;;;;4928489;28;20061;-66
2023/03/19 11:05:22;;;;;;;62.20;25.55;;;;;;;;;;4961413;28;20047;-67
2023/03/19 11:07:50;;;;;;;59.25;24.55;;;;;;;;;;4963236;28;20047;-65
2023/03/19 11:10:16;;;;;;;45.55;21.10;;;;;;;;;;4961001;28;20490;-66
2023/03/19 11:12:47;;;;;;;49.42;21.63;;;;;;;;;;4963743;28;20105;-68
2023/03/19 11:15:22;;;;;;;51.22;22.88;;;;;;;;;;4962910;28;20094;-67
2023/03/19 11:17:56;;;;;;;57.35;23.95;;;;;;;;;;4962745;28;20097;-68
2023/03/19 11:20:26;;;;;;;55.10;24.73;;;;;;;;;;4961412;28;20138;-68
2023/03/19 11:22:53;;;;;;;59.28;28.25;;;;;;;;;;4961640;28;20086;-68
2023/03/19 11:25:27;;;;;;;45.25;24.73;;;;;;;;;;4962240;28;20149;-67
2023/03/19 11:27:53;;;;;;;;;;;;;;;;;;4965116;28;20045;-68
2023/03/19 11:30:20;;;;;;;44.28;22.98;;;;;;;;;;4954531;28;19922;-68
2023/03/19 11:32:57;;;;;;;43.08;22.08;;;;;;;;;;4940587;28;20566;-67
2023/03/19 11:35:27;;;;;;;41.58;21.90;;;;;;;;;;4942856;28;20075;-68
2023/03/19 11:37:55;;;;;;;43.28;22.15;;;;;;;;;;4941872;28;20060;-67
2023/03/19 11:40:30;;;;;;;45.13;23.13;;;;;;;;;;4943775;28;20102;-67
2023/03/19 11:43:05;;;;;;;43.05;22.98;;;;;;;;;;4943864;28;20061;-68
2023/03/19 11:45:40;;;;;;;43.40;23.13;;;;;;;;;;4929897;28;20059;-68
2023/03/19 11:48:14;;;;;;;44.28;21.67;;;;;;;;;;4927994;28;20418;-68
2023/03/19 11:50:53;;;;;;;47.95;22.75;;;;;;;;;;4940232;28;20052;-68
2023/03/19 11:53:23;;;;;;;48.30;22.65;;;;;;;;;;4945533;28;20141;-68
2023/03/19 11:55:59;;;;;;;49.00;20.80;;;;;;;;;;4945469;28;20046;-69
2023/03/19 11:58:47;;;;;;;47.58;22.25;;;;;;;;;;4944320;28;20040;-68
2023/03/19 12:01:21;;;;;;;48.17;22.00;;;;;;;;;;4945451;28;20066;-68
2023/03/19 12:03:49;;;;;;;41.88;20.85;;;;;;;;;;4947043;28;20133;-68
2023/03/19 12:06:24;;;;;;;38.47;21.63;;;;;;;;;;4947406;28;20066;-68
2023/03/19 12:08:55;;;;;;;37.58;20.33;;;;;;;;;;4927994;28;20152;-68
2023/03/19 12:11:21;;;;;;;35.38;19.85;;;;;;;;;;4944933;28;20061;-68
2023/03/19 12:13:55;;;;;;;39.72;20.30;;;;;;;;;;4937704;28;20043;-68
2023/03/19 12:16:21;;;;;;;39.25;20.52;;;;;;;;;;4920302;28;20113;-69
2023/03/19 12:18:54;;;;;;;37.50;21.55;;;;;;;;;;4924319;28;20055;-68
2023/03/19 12:21:28;;;;;;;42.15;21.88;;;;;;;;;;4922579;29;20090;-68
2023/03/19 12:24:10;;;;;;;42.40;23.30;;;;;;;;;;4941227;28;20055;-68
2023/03/19 12:26:47;;;;;;;45.25;21.40;;;;;;;;;;4941474;28;20390;-68
2023/03/19 12:29:24;;;;;;;45.72;24.52;;;;;;;;;;4921581;28;20109;-68
2023/03/19 12:31:57;;;;;;;50.92;26.10;;;;;;;;;;4923826;28;20061;-68
2023/03/19 12:34:28;;;;;;;55.72;27.98;;;;;;;;;;4939699;28;20383;-69
2023/03/19 12:36:55;;;;;;;54.50;27.65;;;;;;;;;;4906022;28;20046;-70
2023/03/19 12:39:25;;;;;;;46.38;25.65;;;;;;;;;;4941904;28;20065;-70
2023/03/19 12:41:55;;;;;;;53.53;27.63;;;;;;;;;;4939843;28;20415;-71
2023/03/19 12:44:23;;;;;;;55.85;28.33;;;;;;;;;;4944431;29;20055;-69
2023/03/19 12:46:53;;;;;;;55.40;26.63;;;;;;;;;;4943353;29;20051;-67
2023/03/19 12:49:22;;;;;;;61.42;27.85;;;;;;;;;;4941521;28;20492;-70
2023/03/19 12:51:52;;;;;;;56.80;28.90;;;;;;;;;;4925929;29;20047;-67
2023/03/19 12:54:20;;;;;;;63.60;31.30;;;;;;;;;;4944978;29;20058;-69
2023/03/19 12:56:53;;;;;;;71.32;35.15;;;;;;;;;;4943546;29;20035;-68
2023/03/19 12:59:38;;;;;;;72.25;34.30;;;;;;;;;;4927080;29;20051;-76
2023/03/19 13:02:16;;;;;;;65.07;31.38;;;;;;;;;;4927604;29;20380;-68
2023/03/19 13:04:52;;;;;;;60.67;30.60;;;;;;;;;;4904924;29;20403;-68
2023/03/19 13:07:22;;;;;;;64.53;31.75;;;;;;;;;;4927114;29;20055;-71
2023/03/19 13:09:53;;;;;;;61.33;30.05;;;;;;;;;;4912025;29;20050;-68
2023/03/19 13:12:22;;;;;;;62.33;28.20;;;;;;;;;;4941504;29;20039;-69
2023/03/19 13:15:05;;;;;;;61.83;29.45;;;;;;;;;;4942535;29;20078;-68
2023/03/19 13:17:46;;;;;;;61.92;30.35;;;;;;;;;;4941743;29;20126;-68
2023/03/19 13:20:18;;;;;;;72.00;31.60;;;;;;;;;;4943384;29;21164;-68
2023/03/19 13:22:50;;;;;;;67.47;33.92;;;;;;;;;;4943724;29;20047;-68
2023/03/19 13:25:20;;;;;;;67.90;34.67;;;;;;;;;;4940537;29;20500;-69
2023/03/19 13:27:52;;;;;;;65.97;34.72;;;;;;;;;;4926443;29;20049;-68
2023/03/19 13:30:20;;;;;;;61.53;31.60;;;;;;;;;;4924804;29;20055;-69
2023/03/19 13:33:00;;;;;;;56.63;30.48;;;;;;;;;;4942247;29;20047;-69
2023/03/19 13:35:30;;;;;;;62.95;31.25;;;;;;;;;;4927984;29;20495;-70
2023/03/19 13:37:59;;;;;;;56.72;31.00;;;;;;;;;;4944155;29;20053;-70
2023/03/19 13:40:48;;;;;;;60.63;28.55;;;;;;;;;;4943671;29;20051;-70
2023/03/19 13:43:28;;;;;;;55.05;27.58;;;;;;;;;;4924286;29;20547;-69
2023/03/19 13:45:54;;;;;;;47.33;25.60;;;;;;;;;;4940148;29;20458;-70
2023/03/19 13:48:34;;;;;;;42.38;23.33;;;;;;;;;;4922787;29;20208;-69
2023/03/19 13:51:02;;;;;;;39.38;21.33;;;;;;;;;;4921714;29;20522;-69
2023/03/19 13:53:28;;;;;;;41.50;22.95;;;;;;;;;;4940417;29;20125;-69
2023/03/19 13:55:57;;;;;;;47.75;24.45;;;;;;;;;;4938650;29;20535;-70
2023/03/19 13:58:55;;;;;;;51.72;26.00;;;;;;;;;;4939432;29;20456;-68
2023/03/19 14:01:25;;;;;;;47.03;24.73;;;;;;;;;;4921314;29;20411;-68
2023/03/19 14:03:53;;;;;;;46.90;23.45;;;;;;;;;;4943061;29;20049;-68
2023/03/19 14:06:31;;;;;;;48.15;24.80;;;;;;;;;;4926722;29;20047;-68
2023/03/19 14:08:58;;;;;;;48.92;25.48;;;;;;;;;;4926651;29;20067;-68
2023/03/19 14:11:24;;;;;;;50.35;25.40;;;;;;;;;;4944079;29;20083;-68
2023/03/19 14:13:51;;;;;;;51.38;26.08;;;;;;;;;;4923887;29;20098;-67
2023/03/19 14:16:22;;;;;;;46.20;24.17;;;;;;;;;;4940405;29;20135;-67
2023/03/19 14:18:48;;;;;;;51.13;26.38;;;;;;;;;;4943372;29;20043;-67
2023/03/19 14:21:16;;;;;;;45.03;22.67;;;;;;;;;;4945172;29;20121;-67
2023/03/19 14:23:51;;;;;;;40.47;23.23;;;;;;;;;;4945494;29;20046;-67